Terminal Aerodrome Forecast
Issued by NWS Sterling, VA

Current Version | Previous Version | Graphics & Text | Print | Product List | Glossary On
Versions: 1 2 3 4 5 6 7 8 9 10 11 12 13 14 15 16 17 18 19 20 21 22 23 24 25 26 27
000
FTUS41 KLWX 290854 AAA
TAFIAD
TAF AMD
KIAD 290854Z 2909/3012 03006KT P6SM SCT030 SCT100
      TEMPO 2910/2912 5SM BR
     FM291200 08006KT P6SM SCT040 SCT100
     FM291700 13007KT P6SM SCT040 BKN100
     FM292000 15008KT P6SM VCTS BKN040CB
     FM300100 VRB05KT P6SM SCT050=

USA.gov is the U.S. government's official web portal to all federal, state and local government web resources and services.